sensor_id;sensor_type;location;lat;lon;timestamp;pressure;altitude;pressure_sealevel;temperature;humidity
4814;BME280;15375;48.540;9.268;2023-01-28T00:01:14;97803.97;;;-1.01;100.00
4814;BME280;15375;48.540;9.268;2023-01-28T00:03:40;97818.63;;;-0.86;100.00
4814;BME280;15375;48.540;9.268;2023-01-28T00:06:11;97861.66;;;-0.58;100.00
4814;BME280;15375;48.540;9.268;2023-01-28T00:08:37;97823.44;;;-0.80;100.00
4814;BME280;15375;48.540;9.268;2023-01-28T00:11:04;97852.72;;;-0.63;100.00
4814;BME280;15375;48.540;9.268;2023-01-28T00:13:31;97857.84;;;-0.57;100.00
4814;BME280;15375;48.540;9.268;2023-01-28T00:15:58;97855.66;;;-0.55;100.00
4814;BME280;15375;48.540;9.268;2023-01-28T00:18:28;97798.88;;;-0.94;100.00
4814;BME280;15375;48.540;9.268;2023-01-28T00:20:58;97831.50;;;-0.68;100.00
4814;BME280;15375;48.540;9.268;2023-01-28T00:23:24;97817.75;;;-0.78;100.00
4814;BME280;15375;48.540;9.268;2023-01-28T00:25:51;97839.00;;;-0.61;100.00
4814;BME280;15375;48.540;9.268;2023-01-28T00:28:16;97811.19;;;-0.81;100.00
4814;BME280;15375;48.540;9.268;2023-01-28T00:30:42;97752.16;;;-1.17;100.00
4814;BME280;15375;48.540;9.268;2023-01-28T00:33:07;97848.84;;;-0.53;100.00
4814;BME280;15375;48.540;9.268;2023-01-28T00:35:32;97734.97;;;-1.28;100.00
4814;BME280;15375;48.540;9.268;2023-01-28T00:37:58;97845.00;;;-0.64;100.00
4814;BME280;15375;48.540;9.268;2023-01-28T00:40:24;97816.97;;;-0.79;100.00
4814;BME280;15375;48.540;9.268;2023-01-28T00:42:49;97766.59;;;-1.09;100.00
4814;BME280;15375;48.540;9.268;2023-01-28T00:45:15;97800.69;;;-0.86;100.00
4814;BME280;15375;48.540;9.268;2023-01-28T00:47:40;97809.38;;;-0.77;100.00
4814;BME280;15375;48.540;9.268;2023-01-28T00:50:06;97836.69;;;-0.50;100.00
4814;BME280;15375;48.540;9.268;2023-01-28T00:52:31;97791.19;;;-0.83;100.00
4814;BME280;15375;48.540;9.268;2023-01-28T00:54:56;97837.09;;;-0.60;100.00
4814;BME280;15375;48.540;9.268;2023-01-28T00:57:22;97808.59;;;-0.77;100.00
4814;BME280;15375;48.540;9.268;2023-01-28T00:59:47;97793.09;;;-0.84;100.00
4814;BME280;15375;48.540;9.268;2023-01-28T01:02:12;97813.88;;;-0.69;100.00
4814;BME280;15375;48.540;9.268;2023-01-28T01:04:39;97823.94;;;-0.66;100.00
4814;BME280;15375;48.540;9.268;2023-01-28T01:07:04;97784.03;;;-0.91;100.00
4814;BME280;15375;48.540;9.268;2023-01-28T01:09:30;97835.19;;;-0.60;100.00
4814;BME280;15375;48.540;9.268;2023-01-28T01:11:55;97773.41;;;-1.00;100.00
4814;BME280;15375;48.540;9.268;2023-01-28T01:14:20;97847.63;;;-0.55;100.00
4814;BME280;15375;48.540;9.268;2023-01-28T01:16:46;97802.56;;;-0.86;100.00
4814;BME280;15375;48.540;9.268;2023-01-28T01:19:11;97854.06;;;-0.56;100.00
4814;BME280;15375;48.540;9.268;2023-01-28T01:21:37;97767.56;;;-1.14;100.00
4814;BME280;15375;48.540;9.268;2023-01-28T01:24:02;97751.94;;;-1.24;100.00
4814;BME280;15375;48.540;9.268;2023-01-28T01:26:28;97799.31;;;-0.92;100.00
4814;BME280;15375;48.540;9.268;2023-01-28T01:28:54;97812.28;;;-0.82;100.00
4814;BME280;15375;48.540;9.268;2023-01-28T01:31:21;97850.16;;;-0.59;100.00
4814;BME280;15375;48.540;9.268;2023-01-28T01:33:48;97838.41;;;-0.79;100.00
4814;BME280;15375;48.540;9.268;2023-01-28T01:36:15;97850.81;;;-0.62;100.00
4814;BME280;15375;48.540;9.268;2023-01-28T01:38:41;97849.28;;;-0.63;100.00
4814;BME280;15375;48.540;9.268;2023-01-28T01:41:08;97837.84;;;-0.72;100.00
4814;BME280;15375;48.540;9.268;2023-01-28T01:43:46;97862.56;;;-0.54;100.00
4814;BME280;15375;48.540;9.268;2023-01-28T01:46:13;97820.31;;;-0.82;100.00
4814;BME280;15375;48.540;9.268;2023-01-28T01:48:39;97845.00;;;-0.76;100.00
4814;BME280;15375;48.540;9.268;2023-01-28T01:51:09;97846.66;;;-0.72;100.00
4814;BME280;15375;48.540;9.268;2023-01-28T01:53:41;97870.81;;;-0.59;100.00
4814;BME280;15375;48.540;9.268;2023-01-28T01:56:10;97818.84;;;-0.91;100.00
4814;BME280;15375;48.540;9.268;2023-01-28T01:58:39;97868.13;;;-0.59;100.00
4814;BME280;15375;48.540;9.268;2023-01-28T02:01:05;97855.16;;;-0.70;100.00
4814;BME280;15375;48.540;9.268;2023-01-28T02:03:38;97844.84;;;-0.80;100.00
4814;BME280;15375;48.540;9.268;2023-01-28T02:06:07;97866.44;;;-0.64;100.00
4814;BME280;15375;48.540;9.268;2023-01-28T02:08:33;97868.56;;;-0.57;100.00
4814;BME280;15375;48.540;9.268;2023-01-28T02:11:04;97870.16;;;-0.56;100.00
4814;BME280;15375;48.540;9.268;2023-01-28T02:13:38;97876.75;;;-0.54;100.00
4814;BME280;15375;48.540;9.268;2023-01-28T02:16:06;97875.50;;;-0.56;100.00
4814;BME280;15375;48.540;9.268;2023-01-28T02:18:32;97861.66;;;-0.58;100.00
4814;BME280;15375;48.540;9.268;2023-01-28T02:23:53;97865.00;;;-0.61;100.00
4814;BME280;15375;48.540;9.268;2023-01-28T02:26:25;97877.97;;;-0.51;100.00
4814;BME280;15375;48.540;9.268;2023-01-28T02:29:16;97871.16;;;-0.49;100.00
4814;BME280;15375;48.540;9.268;2023-01-28T02:34:42;97881.06;;;-0.61;100.00
4814;BME280;15375;48.540;9.268;2023-01-28T02:37:20;97851.91;;;-0.75;100.00
4814;BME280;15375;48.540;9.268;2023-01-28T02:39:53;97865.88;;;-0.70;100.00
4814;BME280;15375;48.540;9.268;2023-01-28T02:42:29;97859.16;;;-0.76;100.00
4814;BME280;15375;48.540;9.268;2023-01-28T02:44:55;97885.88;;;-0.55;100.00
4814;BME280;15375;48.540;9.268;2023-01-28T02:47:20;97885.13;;;-0.55;100.00
4814;BME280;15375;48.540;9.268;2023-01-28T02:50:07;97863.16;;;-0.82;100.00
4814;BME280;15375;48.540;9.268;2023-01-28T02:52:50;97868.75;;;-0.75;100.00
4814;BME280;15375;48.540;9.268;2023-01-28T02:56:04;97887.09;;;-0.65;100.00
4814;BME280;15375;48.540;9.268;2023-01-28T02:59:00;97883.06;;;-0.71;100.00
4814;BME280;15375;48.540;9.268;2023-01-28T03:01:53;97872.28;;;-0.83;100.00
4814;BME280;15375;48.540;9.268;2023-01-28T03:04:24;97884.03;;;-0.75;100.00
4814;BME280;15375;48.540;9.268;2023-01-28T03:06:56;97847.03;;;-1.06;100.00
4814;BME280;15375;48.540;9.268;2023-01-28T03:09:23;97832.25;;;-1.12;100.00
4814;BME280;15375;48.540;9.268;2023-01-28T03:14:50;97875.19;;;-0.88;100.00
4814;BME280;15375;48.540;9.268;2023-01-28T03:20:40;97884.25;;;-0.80;100.00
4814;BME280;15375;48.540;9.268;2023-01-28T03:23:30;97870.84;;;-0.80;100.00
4814;BME280;15375;48.540;9.268;2023-01-28T03:26:18;97851.97;;;-0.96;100.00
4814;BME280;15375;48.540;9.268;2023-01-28T03:29:08;97871.41;;;-0.87;100.00
4814;BME280;15375;48.540;9.268;2023-01-28T03:31:54;97871.41;;;-0.87;100.00
4814;BME280;15375;48.540;9.268;2023-01-28T03:34:39;97870.59;;;-0.87;100.00
4814;BME280;15375;48.540;9.268;2023-01-28T03:37:24;97886.66;;;-0.87;100.00
4814;BME280;15375;48.540;9.268;2023-01-28T03:39:51;97864.88;;;-0.98;100.00
4814;BME280;15375;48.540;9.268;2023-01-28T03:42:16;97854.13;;;-1.10;100.00
4814;BME280;15375;48.540;9.268;2023-01-28T03:44:43;97870.50;;;-0.91;100.00
4814;BME280;15375;48.540;9.268;2023-01-28T03:47:19;97885.00;;;-0.92;100.00
4814;BME280;15375;48.540;9.268;2023-01-28T03:49:47;97851.00;;;-1.12;100.00
4814;BME280;15375;48.540;9.268;2023-01-28T03:52:18;97867.56;;;-0.98;100.00
4814;BME280;15375;48.540;9.268;2023-01-28T03:54:45;97881.47;;;-0.84;100.00
4814;BME280;15375;48.540;9.268;2023-01-28T03:57:16;97912.94;;;-0.81;100.00
4814;BME280;15375;48.540;9.268;2023-01-28T03:59:41;97861.38;;;-1.10;100.00
4814;BME280;15375;48.540;9.268;2023-01-28T04:02:08;97887.66;;;-0.92;100.00
4814;BME280;15375;48.540;9.268;2023-01-28T04:04:38;97894.41;;;-0.86;100.00
4814;BME280;15375;48.540;9.268;2023-01-28T04:07:04;97897.75;;;-0.77;100.00
4814;BME280;15375;48.540;9.268;2023-01-28T04:09:29;97878.84;;;-0.92;100.00
4814;BME280;15375;48.540;9.268;2023-01-28T04:11:54;97846.09;;;-1.10;100.00
4814;BME280;15375;48.540;9.268;2023-01-28T04:14:20;97880.53;;;-0.88;100.00
4814;BME280;15375;48.540;9.268;2023-01-28T04:16:45;97855.75;;;-0.97;100.00
4814;BME280;15375;48.540;9.268;2023-01-28T04:19:11;97884.44;;;-0.85;100.00
4814;BME280;15375;48.540;9.268;2023-01-28T04:21:38;97918.13;;;-0.63;100.00
4814;BME280;15375;48.540;9.268;2023-01-28T04:24:04;97891.50;;;-0.81;100.00
4814;BME280;15375;48.540;9.268;2023-01-28T04:26:29;97911.53;;;-0.66;100.00
4814;BME280;15375;48.540;9.268;2023-01-28T04:28:55;97863.97;;;-1.02;100.00
4814;BME280;15375;48.540;9.268;2023-01-28T04:31:20;97893.59;;;-0.86;100.00
4814;BME280;15375;48.540;9.268;2023-01-28T04:33:45;97895.16;;;-0.85;100.00
4814;BME280;15375;48.540;9.268;2023-01-28T04:36:11;97888.13;;;-0.90;100.00
4814;BME280;15375;48.540;9.268;2023-01-28T04:38:36;97876.06;;;-0.96;100.00
4814;BME280;15375;48.540;9.268;2023-01-28T04:41:01;97901.31;;;-0.85;100.00
4814;BME280;15375;48.540;9.268;2023-01-28T04:43:27;97919.44;;;-0.70;100.00
4814;BME280;15375;48.540;9.268;2023-01-28T04:45:52;97925.25;;;-0.68;100.00
4814;BME280;15375;48.540;9.268;2023-01-28T04:48:18;97897.28;;;-0.91;100.00
4814;BME280;15375;48.540;9.268;2023-01-28T04:50:43;97918.94;;;-0.84;100.00
4814;BME280;15375;48.540;9.268;2023-01-28T04:53:10;97915.53;;;-0.93;100.00
4814;BME280;15375;48.540;9.268;2023-01-28T04:55:35;97946.34;;;-0.66;100.00
4814;BME280;15375;48.540;9.268;2023-01-28T04:58:01;97924.09;;;-0.79;100.00
4814;BME280;15375;48.540;9.268;2023-01-28T05:00:27;97935.41;;;-0.73;100.00
4814;BME280;15375;48.540;9.268;2023-01-28T05:02:52;97926.78;;;-0.79;100.00
4814;BME280;15375;48.540;9.268;2023-01-28T05:05:17;97942.81;;;-0.58;100.00
4814;BME280;15375;48.540;9.268;2023-01-28T05:07:43;97941.69;;;-0.57;100.00
4814;BME280;15375;48.540;9.268;2023-01-28T05:10:09;97919.19;;;-0.77;100.00
4814;BME280;15375;48.540;9.268;2023-01-28T05:12:35;97850.09;;;-1.16;100.00
4814;BME280;15375;48.540;9.268;2023-01-28T05:15:00;97939.81;;;-0.56;100.00
4814;BME280;15375;48.540;9.268;2023-01-28T05:17:27;97950.97;;;-0.54;100.00
4814;BME280;15375;48.540;9.268;2023-01-28T05:19:52;97905.56;;;-0.84;100.00
4814;BME280;15375;48.540;9.268;2023-01-28T05:22:17;97909.66;;;-0.86;100.00
4814;BME280;15375;48.540;9.268;2023-01-28T05:24:43;97958.22;;;-0.55;100.00
4814;BME280;15375;48.540;9.268;2023-01-28T05:27:08;97900.41;;;-0.89;100.00
4814;BME280;15375;48.540;9.268;2023-01-28T05:29:33;97906.66;;;-0.85;100.00
4814;BME280;15375;48.540;9.268;2023-01-28T05:31:59;97942.56;;;-0.65;100.00
4814;BME280;15375;48.540;9.268;2023-01-28T05:34:24;97905.09;;;-0.86;100.00
4814;BME280;15375;48.540;9.268;2023-01-28T05:36:50;97938.78;;;-0.64;100.00
4814;BME280;15375;48.540;9.268;2023-01-28T05:39:15;97896.81;;;-0.93;100.00
4814;BME280;15375;48.540;9.268;2023-01-28T05:41:40;97924.47;;;-0.68;100.00
4814;BME280;15375;48.540;9.268;2023-01-28T05:44:06;97956.91;;;-0.49;100.00
4814;BME280;15375;48.540;9.268;2023-01-28T05:46:31;97909.25;;;-0.76;100.00
4814;BME280;15375;48.540;9.268;2023-01-28T05:48:56;97914.88;;;-0.69;100.00
4814;BME280;15375;48.540;9.268;2023-01-28T05:51:22;97913.75;;;-0.68;100.00
4814;BME280;15375;48.540;9.268;2023-01-28T05:53:47;97942.72;;;-0.49;100.00
4814;BME280;15375;48.540;9.268;2023-01-28T05:56:12;97922.34;;;-0.63;100.00
4814;BME280;15375;48.540;9.268;2023-01-28T05:58:38;97931.97;;;-0.61;100.00
4814;BME280;15375;48.540;9.268;2023-01-28T06:01:03;97955.66;;;-0.51;100.00
4814;BME280;15375;48.540;9.268;2023-01-28T06:03:29;97966.19;;;-0.46;100.00
4814;BME280;15375;48.540;9.268;2023-01-28T06:05:55;97911.34;;;-0.82;100.00
4814;BME280;15375;48.540;9.268;2023-01-28T06:08:21;97943.69;;;-0.66;100.00
4814;BME280;15375;48.540;9.268;2023-01-28T06:10:46;97925.84;;;-0.83;100.00
4814;BME280;15375;48.540;9.268;2023-01-28T06:13:11;97919.06;;;-0.80;100.00
4814;BME280;15375;48.540;9.268;2023-01-28T06:15:37;97960.44;;;-0.57;100.00
4814;BME280;15375;48.540;9.268;2023-01-28T06:18:02;97925.19;;;-0.80;100.00
4814;BME280;15375;48.540;9.268;2023-01-28T06:20:28;97946.66;;;-0.68;100.00
4814;BME280;15375;48.540;9.268;2023-01-28T06:22:53;97949.34;;;-0.68;100.00
4814;BME280;15375;48.540;9.268;2023-01-28T06:25:19;97977.78;;;-0.42;100.00
4814;BME280;15375;48.540;9.268;2023-01-28T06:27:44;97961.69;;;-0.54;100.00
4814;BME280;15375;48.540;9.268;2023-01-28T06:30:11;97937.59;;;-0.75;100.00
4814;BME280;15375;48.540;9.268;2023-01-28T06:32:36;97970.66;;;-0.50;100.00
4814;BME280;15375;48.540;9.268;2023-01-28T06:35:02;97977.44;;;-0.53;100.00
4814;BME280;15375;48.540;9.268;2023-01-28T06:37:28;97963.78;;;-0.60;100.00
4814;BME280;15375;48.540;9.268;2023-01-28T06:39:53;97993.31;;;-0.48;100.00
4814;BME280;15375;48.540;9.268;2023-01-28T06:42:19;97960.47;;;-0.78;100.00
4814;BME280;15375;48.540;9.268;2023-01-28T06:44:44;97986.59;;;-0.54;100.00
4814;BME280;15375;48.540;9.268;2023-01-28T06:47:12;97948.41;;;-0.84;100.00
4814;BME280;15375;48.540;9.268;2023-01-28T06:49:39;97934.69;;;-1.03;100.00
4814;BME280;15375;48.540;9.268;2023-01-28T06:52:05;97956.44;;;-0.84;100.00
4814;BME280;15375;48.540;9.268;2023-01-28T06:54:30;97986.75;;;-0.71;100.00
4814;BME280;15375;48.540;9.268;2023-01-28T06:56:56;97934.56;;;-1.06;100.00
4814;BME280;15375;48.540;9.268;2023-01-28T06:59:21;97987.53;;;-0.71;100.00
4814;BME280;15375;48.540;9.268;2023-01-28T07:01:46;97981.88;;;-0.78;100.00
4814;BME280;15375;48.540;9.268;2023-01-28T07:04:12;97925.03;;;-1.16;100.00
4814;BME280;15375;48.540;9.268;2023-01-28T07:06:37;97933.53;;;-1.14;100.00
4814;BME280;15375;48.540;9.268;2023-01-28T07:09:03;97947.41;;;-1.00;100.00
4814;BME280;15375;48.540;9.268;2023-01-28T07:11:28;97999.94;;;-0.66;100.00
4814;BME280;15375;48.540;9.268;2023-01-28T07:13:53;97976.94;;;-0.88;100.00
4814;BME280;15375;48.540;9.268;2023-01-28T07:16:19;97992.22;;;-0.68;100.00
4814;BME280;15375;48.540;9.268;2023-01-28T07:18:44;98006.97;;;-0.61;100.00
4814;BME280;15375;48.540;9.268;2023-01-28T07:21:09;97940.38;;;-1.04;100.00
4814;BME280;15375;48.540;9.268;2023-01-28T07:23:35;98003.97;;;-0.60;100.00
4814;BME280;15375;48.540;9.268;2023-01-28T07:26:04;97978.56;;;-0.75;100.00
4814;BME280;15375;48.540;9.268;2023-01-28T07:28:29;98022.91;;;-0.44;100.00
4814;BME280;15375;48.540;9.268;2023-01-28T07:30:55;98001.09;;;-0.55;100.00
4814;BME280;15375;48.540;9.268;2023-01-28T07:33:20;98040.16;;;-0.33;100.00
4814;BME280;15375;48.540;9.268;2023-01-28T07:35:46;98029.19;;;-0.40;100.00
4814;BME280;15375;48.540;9.268;2023-01-28T07:38:12;98045.63;;;-0.30;100.00
4814;BME280;15375;48.540;9.268;2023-01-28T07:40:38;98049.09;;;-0.29;100.00
4814;BME280;15375;48.540;9.268;2023-01-28T07:43:04;98020.63;;;-0.54;100.00
4814;BME280;15375;48.540;9.268;2023-01-28T07:45:31;98028.25;;;-0.44;100.00
4814;BME280;15375;48.540;9.268;2023-01-28T07:47:59;98005.69;;;-0.55;100.00
4814;BME280;15375;48.540;9.268;2023-01-28T07:50:26;98020.38;;;-0.41;100.00
4814;BME280;15375;48.540;9.268;2023-01-28T07:52:54;98025.19;;;-0.34;100.00
4814;BME280;15375;48.540;9.268;2023-01-28T07:55:19;98036.88;;;-0.18;100.00
4814;BME280;15375;48.540;9.268;2023-01-28T07:57:56;98011.78;;;-0.34;100.00
4814;BME280;15375;48.540;9.268;2023-01-28T08:00:23;98058.81;;;-0.04;100.00
4814;BME280;15375;48.540;9.268;2023-01-28T08:02:50;98007.88;;;-0.37;100.00
4814;BME280;15375;48.540;9.268;2023-01-28T08:05:20;98059.94;;;-0.05;100.00
4814;BME280;15375;48.540;9.268;2023-01-28T08:07:46;98050.28;;;-0.18;100.00
4814;BME280;15375;48.540;9.268;2023-01-28T08:10:18;98044.25;;;-0.15;100.00
4814;BME280;15375;48.540;9.268;2023-01-28T08:12:54;98066.78;;;0.05;100.00
4814;BME280;15375;48.540;9.268;2023-01-28T08:15:20;98029.34;;;-0.25;100.00
4814;BME280;15375;48.540;9.268;2023-01-28T08:17:45;98051.69;;;0.00;100.00
4814;BME280;15375;48.540;9.268;2023-01-28T08:20:11;98078.97;;;0.14;100.00
4814;BME280;15375;48.540;9.268;2023-01-28T08:22:36;98044.94;;;-0.06;100.00
4814;BME280;15375;48.540;9.268;2023-01-28T08:25:02;98081.31;;;0.16;100.00
4814;BME280;15375;48.540;9.268;2023-01-28T08:27:28;98050.09;;;-0.01;100.00
4814;BME280;15375;48.540;9.268;2023-01-28T08:29:53;98059.81;;;0.04;100.00
4814;BME280;15375;48.540;9.268;2023-01-28T08:32:18;98078.31;;;0.17;100.00
4814;BME280;15375;48.540;9.268;2023-01-28T08:34:44;98060.16;;;0.02;100.00
4814;BME280;15375;48.540;9.268;2023-01-28T08:37:09;98053.13;;;-0.03;100.00
4814;BME280;15375;48.540;9.268;2023-01-28T08:39:34;98073.16;;;0.12;100.00
4814;BME280;15375;48.540;9.268;2023-01-28T08:42:00;98075.50;;;0.14;100.00
4814;BME280;15375;48.540;9.268;2023-01-28T08:44:25;98045.38;;;-0.04;100.00
4814;BME280;15375;48.540;9.268;2023-01-28T08:46:51;98039.38;;;-0.01;100.00
4814;BME280;15375;48.540;9.268;2023-01-28T08:49:16;98067.25;;;0.19;100.00
4814;BME280;15375;48.540;9.268;2023-01-28T08:51:41;98068.13;;;0.23;100.00
4814;BME280;15375;48.540;9.268;2023-01-28T08:54:06;97972.34;;;-0.46;100.00
4814;BME280;15375;48.540;9.268;2023-01-28T08:56:32;98042.53;;;0.13;100.00
4814;BME280;15375;48.540;9.268;2023-01-28T08:58:57;98047.22;;;0.16;100.00
4814;BME280;15375;48.540;9.268;2023-01-28T09:01:22;98042.44;;;0.22;100.00
4814;BME280;15375;48.540;9.268;2023-01-28T09:03:48;98076.91;;;0.44;100.00
4814;BME280;15375;48.540;9.268;2023-01-28T09:06:13;98072.41;;;0.36;100.00
4814;BME280;15375;48.540;9.268;2023-01-28T09:08:39;98083.72;;;0.41;100.00
4814;BME280;15375;48.540;9.268;2023-01-28T09:11:04;98034.47;;;0.13;100.00
4814;BME280;15375;48.540;9.268;2023-01-28T09:13:30;98077.69;;;0.32;100.00
4814;BME280;15375;48.540;9.268;2023-01-28T09:15:55;98086.41;;;0.41;100.00
4814;BME280;15375;48.540;9.268;2023-01-28T09:18:21;98078.56;;;0.36;100.00
4814;BME280;15375;48.540;9.268;2023-01-28T09:20:46;98041.53;;;0.18;100.00
4814;BME280;15375;48.540;9.268;2023-01-28T09:23:12;98081.19;;;0.45;100.00
4814;BME280;15375;48.540;9.268;2023-01-28T09:25:37;98074.22;;;0.44;100.00
4814;BME280;15375;48.540;9.268;2023-01-28T09:28:03;98067.50;;;0.38;100.00
4814;BME280;15375;48.540;9.268;2023-01-28T09:30:29;98013.13;;;0.05;100.00
4814;BME280;15375;48.540;9.268;2023-01-28T09:32:55;98059.56;;;0.29;100.00
4814;BME280;15375;48.540;9.268;2023-01-28T09:35:22;98066.81;;;0.29;100.00
4814;BME280;15375;48.540;9.268;2023-01-28T09:37:47;98097.16;;;0.41;100.00
4814;BME280;15375;48.540;9.268;2023-01-28T09:40:36;98082.47;;;0.27;100.00
4814;BME280;15375;48.540;9.268;2023-01-28T09:45:51;98099.38;;;0.39;100.00
4814;BME280;15375;48.540;9.268;2023-01-28T09:48:21;98101.19;;;0.47;100.00
4814;BME280;15375;48.540;9.268;2023-01-28T09:50:51;98070.09;;;0.34;100.00
4814;BME280;15375;48.540;9.268;2023-01-28T09:55:45;98118.13;;;0.72;100.00
4814;BME280;15375;48.540;9.268;2023-01-28T09:58:13;98124.72;;;0.75;100.00
4814;BME280;15375;48.540;9.268;2023-01-28T10:03:50;98109.94;;;0.81;100.00
4814;BME280;15375;48.540;9.268;2023-01-28T10:06:27;98115.34;;;0.93;100.00
4814;BME280;15375;48.540;9.268;2023-01-28T10:17:33;98105.94;;;1.23;100.00
4814;BME280;15375;48.540;9.268;2023-01-28T10:20:27;98101.03;;;1.13;100.00
4814;BME280;15375;48.540;9.268;2023-01-28T10:25:50;98085.13;;;0.96;100.00
4814;BME280;15375;48.540;9.268;2023-01-28T10:28:23;98073.03;;;0.90;100.00
4814;BME280;15375;48.540;9.268;2023-01-28T10:30:50;98086.69;;;0.97;100.00
4814;BME280;15375;48.540;9.268;2023-01-28T10:33:38;98077.19;;;0.99;100.00
4814;BME280;15375;48.540;9.268;2023-01-28T10:36:04;98060.16;;;0.83;100.00
4814;BME280;15375;48.540;9.268;2023-01-28T10:38:30;98082.00;;;0.94;100.00
4814;BME280;15375;48.540;9.268;2023-01-28T10:41:00;98076.16;;;1.04;100.00
4814;BME280;15375;48.540;9.268;2023-01-28T10:43:30;98073.25;;;1.09;100.00
4814;BME280;15375;48.540;9.268;2023-01-28T10:48:31;98069.56;;;1.25;100.00
4814;BME280;15375;48.540;9.268;2023-01-28T10:50:59;98085.19;;;1.48;100.00
4814;BME280;15375;48.540;9.268;2023-01-28T10:53:44;98092.47;;;1.47;100.00
4814;BME280;15375;48.540;9.268;2023-01-28T10:56:16;98079.47;;;1.49;100.00
4814;BME280;15375;48.540;9.268;2023-01-28T10:59:03;98083.56;;;1.59;100.00
4814;BME280;15375;48.540;9.268;2023-01-28T11:01:48;98067.00;;;1.57;100.00
4814;BME280;15375;48.540;9.268;2023-01-28T11:04:21;98066.22;;;1.56;100.00
4814;BME280;15375;48.540;9.268;2023-01-28T11:07:01;98073.56;;;1.71;100.00
4814;BME280;15375;48.540;9.268;2023-01-28T11:09:35;98062.38;;;1.69;100.00
4814;BME280;15375;48.540;9.268;2023-01-28T11:14:36;98066.84;;;1.77;100.00
4814;BME280;15375;48.540;9.268;2023-01-28T11:17:02;98065.00;;;1.93;100.00
4814;BME280;15375;48.540;9.268;2023-01-28T11:19:33;98080.91;;;2.14;100.00
4814;BME280;15375;48.540;9.268;2023-01-28T11:22:00;98078.03;;;2.07;100.00
4814;BME280;15375;48.540;9.268;2023-01-28T11:24:31;98067.72;;;1.81;99.82
4814;BME280;15375;48.540;9.268;2023-01-28T11:27:07;98091.28;;;2.00;100.00
4814;BME280;15375;48.540;9.268;2023-01-28T11:29:38;98062.78;;;1.83;100.00
4814;BME280;15375;48.540;9.268;2023-01-28T11:32:04;98050.50;;;1.70;100.00
4814;BME280;15375;48.540;9.268;2023-01-28T11:34:33;98092.25;;;1.80;100.00
4814;BME280;15375;48.540;9.268;2023-01-28T11:37:13;98096.63;;;1.84;100.00
4814;BME280;15375;48.540;9.268;2023-01-28T11:39:42;98072.44;;;1.72;100.00
4814;BME280;15375;48.540;9.268;2023-01-28T11:42:19;98077.72;;;1.69;99.75
4814;BME280;15375;48.540;9.268;2023-01-28T11:44:45;98092.63;;;1.78;100.00
4814;BME280;15375;48.540;9.268;2023-01-28T11:52:47;98069.81;;;1.60;99.43
4814;BME280;15375;48.540;9.268;2023-01-28T11:55:36;98067.78;;;1.57;98.87
4814;BME280;15375;48.540;9.268;2023-01-28T12:03:29;98097.00;;;1.71;100.00
4814;BME280;15375;48.540;9.268;2023-01-28T12:34:04;98092.91;;;1.49;100.00
4814;BME280;15375;48.540;9.268;2023-01-28T12:36:47;98090.22;;;1.49;100.00
4814;BME280;15375;48.540;9.268;2023-01-28T12:39:32;98096.03;;;1.51;100.00
4814;BME280;15375;48.540;9.268;2023-01-28T12:42:14;98082.72;;;1.43;100.00
4814;BME280;15375;48.540;9.268;2023-01-28T12:44:48;98074.22;;;1.28;100.00
4814;BME280;15375;48.540;9.268;2023-01-28T12:47:20;98070.06;;;1.31;100.00
4814;BME280;15375;48.540;9.268;2023-01-28T12:49:53;98084.00;;;1.33;100.00
4814;BME280;15375;48.540;9.268;2023-01-28T12:55:00;98050.88;;;1.05;100.00
4814;BME280;15375;48.540;9.268;2023-01-28T12:57:30;98039.22;;;1.01;100.00
4814;BME280;15375;48.540;9.268;2023-01-28T13:02:39;98078.28;;;1.22;100.00
4814;BME280;15375;48.540;9.268;2023-01-28T13:08:35;98092.28;;;1.28;100.00
4814;BME280;15375;48.540;9.268;2023-01-28T13:10:43;98090.69;;;1.27;100.00
4814;BME280;15375;48.540;9.268;2023-01-28T13:13:17;98082.00;;;1.18;100.00
4814;BME280;15375;48.540;9.268;2023-01-28T13:15:44;98067.34;;;1.15;100.00
4814;BME280;15375;48.540;9.268;2023-01-28T13:20:54;98091.59;;;1.31;100.00
4814;BME280;15375;48.540;9.268;2023-01-28T13:28:46;98073.31;;;1.37;100.00
4814;BME280;15375;48.540;9.268;2023-01-28T13:31:14;98087.72;;;1.56;100.00
4814;BME280;15375;48.540;9.268;2023-01-28T13:33:47;98068.72;;;1.49;100.00
4814;BME280;15375;48.540;9.268;2023-01-28T13:36:25;98081.31;;;1.73;100.00
4814;BME280;15375;48.540;9.268;2023-01-28T13:39:05;98082.28;;;1.80;100.00
4814;BME280;15375;48.540;9.268;2023-01-28T13:46:44;98062.81;;;1.71;100.00
4814;BME280;15375;48.540;9.268;2023-01-28T13:49:14;98053.25;;;1.58;100.00
4814;BME280;15375;48.540;9.268;2023-01-28T13:51:54;98037.09;;;1.58;100.00
4814;BME280;15375;48.540;9.268;2023-01-28T13:54:21;98086.28;;;1.86;100.00
4814;BME280;15375;48.540;9.268;2023-01-28T14:16:43;98084.25;;;1.68;100.00
4814;BME280;15375;48.540;9.268;2023-01-28T14:19:18;98088.31;;;1.50;100.00
4814;BME280;15375;48.540;9.268;2023-01-28T14:21:44;98100.19;;;1.49;100.00
4814;BME280;15375;48.540;9.268;2023-01-28T14:24:17;98114.41;;;1.49;100.00
4814;BME280;15375;48.540;9.268;2023-01-28T14:32:05;98100.00;;;1.17;100.00
4814;BME280;15375;48.540;9.268;2023-01-28T14:34:36;98131.66;;;1.36;100.00
4814;BME280;15375;48.540;9.268;2023-01-28T14:37:07;98127.97;;;1.28;100.00
4814;BME280;15375;48.540;9.268;2023-01-28T14:40:05;98113.31;;;1.26;100.00
4814;BME280;15375;48.540;9.268;2023-01-28T14:42:38;98146.44;;;1.42;100.00
4814;BME280;15375;48.540;9.268;2023-01-28T14:45:33;98141.66;;;1.36;100.00
4814;BME280;15375;48.540;9.268;2023-01-28T14:48:37;98145.81;;;1.33;100.00
4814;BME280;15375;48.540;9.268;2023-01-28T15:02:20;98160.25;;;1.41;100.00
4814;BME280;15375;48.540;9.268;2023-01-28T15:04:46;98138.72;;;1.28;100.00
4814;BME280;15375;48.540;9.268;2023-01-28T15:09:42;98105.41;;;1.05;100.00
4814;BME280;15375;48.540;9.268;2023-01-28T15:12:08;98144.00;;;1.25;100.00
4814;BME280;15375;48.540;9.268;2023-01-28T15:14:36;98131.47;;;1.17;100.00
4814;BME280;15375;48.540;9.268;2023-01-28T15:17:04;98164.13;;;1.31;100.00
4814;BME280;15375;48.540;9.268;2023-01-28T15:19:34;98147.13;;;1.15;100.00
4814;BME280;15375;48.540;9.268;2023-01-28T15:22:05;98174.91;;;1.19;100.00
4814;BME280;15375;48.540;9.268;2023-01-28T15:24:33;98140.84;;;0.99;100.00
4814;BME280;15375;48.540;9.268;2023-01-28T15:26:59;98184.41;;;1.16;100.00
4814;BME280;15375;48.540;9.268;2023-01-28T15:29:30;98188.53;;;1.14;100.00
4814;BME280;15375;48.540;9.268;2023-01-28T15:31:56;98136.91;;;0.72;100.00